sensor_id;sensor_type;location;lat;lon;timestamp;pressure;altitude;pressure_sealevel;temperature;humidity
76794;BME280;65745;50.278;18.192;2023-12-20T00:01:05;99200.39;;;5.63;79.58
76794;BME280;65745;50.278;18.192;2023-12-20T00:03:44;99199.58;;;5.65;79.63
76794;BME280;65745;50.278;18.192;2023-12-20T00:06:16;99202.02;;;5.67;78.84
76794;BME280;65745;50.278;18.192;2023-12-20T00:08:49;99207.55;;;5.69;79.08
76794;BME280;65745;50.278;18.192;2023-12-20T00:11:21;99204.17;;;5.70;78.67
76794;BME280;65745;50.278;18.192;2023-12-20T00:13:53;99213.92;;;5.71;77.65
76794;BME280;65745;50.278;18.192;2023-12-20T00:16:25;99211.75;;;5.73;77.81
76794;BME280;65745;50.278;18.192;2023-12-20T00:18:57;99205.27;;;5.73;77.66
76794;BME280;65745;50.278;18.192;2023-12-20T00:21:29;99193.14;;;5.73;78.05
76794;BME280;65745;50.278;18.192;2023-12-20T00:24:01;99176.95;;;5.74;77.13
76794;BME280;65745;50.278;18.192;2023-12-20T00:26:33;99185.15;;;5.81;76.70
76794;BME280;65745;50.278;18.192;2023-12-20T00:29:06;99185.05;;;5.88;76.31
76794;BME280;65745;50.278;18.192;2023-12-20T00:31:38;99194.77;;;5.94;76.50
76794;BME280;65745;50.278;18.192;2023-12-20T00:34:10;99191.66;;;5.99;75.64
76794;BME280;65745;50.278;18.192;2023-12-20T00:36:43;99176.36;;;6.02;75.60
76794;BME280;65745;50.278;18.192;2023-12-20T00:39:15;99153.61;;;6.02;75.44
76794;BME280;65745;50.278;18.192;2023-12-20T00:41:47;99145.79;;;6.03;75.26
76794;BME280;65745;50.278;18.192;2023-12-20T00:44:19;99151.70;;;6.07;74.50
76794;BME280;65745;50.278;18.192;2023-12-20T00:46:51;99170.95;;;6.11;75.11
76794;BME280;65745;50.278;18.192;2023-12-20T00:49:23;99149.26;;;6.12;74.88
76794;BME280;65745;50.278;18.192;2023-12-20T00:51:55;99154.98;;;6.15;74.31
76794;BME280;65745;50.278;18.192;2023-12-20T00:54:27;99153.84;;;6.18;74.18
76794;BME280;65745;50.278;18.192;2023-12-20T00:57:01;99151.31;;;6.19;74.40
76794;BME280;65745;50.278;18.192;2023-12-20T00:59:33;99138.23;;;6.21;73.86
76794;BME280;65745;50.278;18.192;2023-12-20T01:02:05;99127.34;;;6.24;73.55
76794;BME280;65745;50.278;18.192;2023-12-20T01:04:37;99126.39;;;6.27;73.60
76794;BME280;65745;50.278;18.192;2023-12-20T01:07:09;99122.66;;;6.28;72.76
76794;BME280;65745;50.278;18.192;2023-12-20T01:09:42;99106.15;;;6.31;72.86
76794;BME280;65745;50.278;18.192;2023-12-20T01:12:14;99114.05;;;6.33;72.18
76794;BME280;65745;50.278;18.192;2023-12-20T01:14:46;99128.08;;;6.33;71.51
76794;BME280;65745;50.278;18.192;2023-12-20T01:17:18;99113.15;;;6.31;71.29
76794;BME280;65745;50.278;18.192;2023-12-20T01:19:50;99129.91;;;6.31;71.36
76794;BME280;65745;50.278;18.192;2023-12-20T01:22:22;99130.42;;;6.31;71.57
76794;BME280;65745;50.278;18.192;2023-12-20T01:24:54;99141.00;;;6.30;71.30
76794;BME280;65745;50.278;18.192;2023-12-20T01:27:26;99148.87;;;6.30;70.15
76794;BME280;65745;50.278;18.192;2023-12-20T01:29:58;99138.95;;;6.30;69.88
76794;BME280;65745;50.278;18.192;2023-12-20T01:32:31;99118.10;;;6.30;70.74
76794;BME280;65745;50.278;18.192;2023-12-20T01:35:03;99117.90;;;6.30;71.79
76794;BME280;65745;50.278;18.192;2023-12-20T01:37:35;99109.25;;;6.26;71.59
76794;BME280;65745;50.278;18.192;2023-12-20T01:40:09;99112.05;;;6.22;70.84
76794;BME280;65745;50.278;18.192;2023-12-20T01:42:42;99121.61;;;6.20;70.95
76794;BME280;65745;50.278;18.192;2023-12-20T01:45:14;99117.86;;;6.21;71.60
76794;BME280;65745;50.278;18.192;2023-12-20T01:47:46;99117.81;;;6.19;72.36
76794;BME280;65745;50.278;18.192;2023-12-20T01:50:18;99134.73;;;6.19;72.04
76794;BME280;65745;50.278;18.192;2023-12-20T01:52:51;99114.62;;;6.14;72.52
76794;BME280;65745;50.278;18.192;2023-12-20T01:55:26;99118.39;;;6.15;72.48
76794;BME280;65745;50.278;18.192;2023-12-20T01:58:00;99115.84;;;6.15;72.40
76794;BME280;65745;50.278;18.192;2023-12-20T02:00:33;99117.52;;;6.15;71.72
76794;BME280;65745;50.278;18.192;2023-12-20T02:03:06;99127.41;;;6.13;71.44
76794;BME280;65745;50.278;18.192;2023-12-20T02:05:39;99119.20;;;6.13;71.97
76794;BME280;65745;50.278;18.192;2023-12-20T02:08:12;99119.27;;;6.09;72.96
76794;BME280;65745;50.278;18.192;2023-12-20T02:10:44;99107.69;;;6.03;74.07
76794;BME280;65745;50.278;18.192;2023-12-20T02:13:16;99115.27;;;5.93;76.03
76794;BME280;65745;50.278;18.192;2023-12-20T02:15:48;99107.67;;;5.84;77.31
76794;BME280;65745;50.278;18.192;2023-12-20T02:18:20;99111.52;;;5.75;78.34
76794;BME280;65745;50.278;18.192;2023-12-20T02:20:53;99102.88;;;5.71;78.58
76794;BME280;65745;50.278;18.192;2023-12-20T02:23:26;99095.48;;;5.69;77.77
76794;BME280;65745;50.278;18.192;2023-12-20T02:25:58;99105.52;;;5.68;76.55
76794;BME280;65745;50.278;18.192;2023-12-20T02:28:30;99103.98;;;5.61;77.24
76794;BME280;65745;50.278;18.192;2023-12-20T02:31:04;99102.72;;;5.52;78.70
76794;BME280;65745;50.278;18.192;2023-12-20T02:33:36;99102.89;;;5.46;79.03
76794;BME280;65745;50.278;18.192;2023-12-20T02:36:10;99109.91;;;5.41;78.83
76794;BME280;65745;50.278;18.192;2023-12-20T02:38:42;99104.17;;;5.36;78.97
76794;BME280;65745;50.278;18.192;2023-12-20T02:41:14;99108.94;;;5.30;79.25
76794;BME280;65745;50.278;18.192;2023-12-20T02:43:49;99112.05;;;5.26;79.83
76794;BME280;65745;50.278;18.192;2023-12-20T02:46:21;99109.33;;;5.19;81.27
76794;BME280;65745;50.278;18.192;2023-12-20T02:48:53;99106.89;;;5.18;80.86
76794;BME280;65745;50.278;18.192;2023-12-20T02:51:25;99110.60;;;5.16;81.06
76794;BME280;65745;50.278;18.192;2023-12-20T02:53:57;99118.46;;;5.17;80.57
76794;BME280;65745;50.278;18.192;2023-12-20T02:56:29;99111.20;;;5.14;80.51
76794;BME280;65745;50.278;18.192;2023-12-20T02:59:01;99110.58;;;5.10;81.21
76794;BME280;65745;50.278;18.192;2023-12-20T03:01:36;99111.89;;;5.08;81.85
76794;BME280;65745;50.278;18.192;2023-12-20T03:04:14;99109.54;;;5.09;80.79
76794;BME280;65745;50.278;18.192;2023-12-20T03:06:46;99104.64;;;5.10;80.34
76794;BME280;65745;50.278;18.192;2023-12-20T03:09:18;99103.12;;;5.11;81.89
76794;BME280;65745;50.278;18.192;2023-12-20T03:11:50;99101.50;;;5.09;82.41
76794;BME280;65745;50.278;18.192;2023-12-20T03:14:22;99102.22;;;5.09;80.90
76794;BME280;65745;50.278;18.192;2023-12-20T03:16:54;99102.55;;;5.09;81.15
76794;BME280;65745;50.278;18.192;2023-12-20T03:19:30;99102.94;;;5.11;80.85
76794;BME280;65745;50.278;18.192;2023-12-20T03:22:02;99103.27;;;5.11;80.64
76794;BME280;65745;50.278;18.192;2023-12-20T03:24:34;99101.82;;;5.08;80.44
76794;BME280;65745;50.278;18.192;2023-12-20T03:27:06;99093.45;;;5.07;80.56
76794;BME280;65745;50.278;18.192;2023-12-20T03:29:39;99092.55;;;5.05;81.01
76794;BME280;65745;50.278;18.192;2023-12-20T03:32:11;99092.55;;;5.05;81.70
76794;BME280;65745;50.278;18.192;2023-12-20T03:34:43;99090.09;;;5.03;81.52
76794;BME280;65745;50.278;18.192;2023-12-20T03:37:15;99089.65;;;5.00;81.24
76794;BME280;65745;50.278;18.192;2023-12-20T03:39:47;99084.46;;;4.97;81.90
76794;BME280;65745;50.278;18.192;2023-12-20T03:42:19;99076.23;;;4.96;81.34
76794;BME280;65745;50.278;18.192;2023-12-20T03:44:51;99081.70;;;4.91;82.56
76794;BME280;65745;50.278;18.192;2023-12-20T03:47:23;99087.55;;;4.86;81.91
76794;BME280;65745;50.278;18.192;2023-12-20T03:49:55;99077.86;;;4.82;82.18
76794;BME280;65745;50.278;18.192;2023-12-20T03:52:28;99073.66;;;4.78;82.51
76794;BME280;65745;50.278;18.192;2023-12-20T03:55:00;99079.82;;;4.73;82.87
76794;BME280;65745;50.278;18.192;2023-12-20T03:57:32;99076.87;;;4.71;82.63
76794;BME280;65745;50.278;18.192;2023-12-20T04:00:06;99076.34;;;4.71;83.19
76794;BME280;65745;50.278;18.192;2023-12-20T04:02:44;99079.25;;;4.71;82.91
76794;BME280;65745;50.278;18.192;2023-12-20T04:05:16;99074.98;;;4.71;83.18
76794;BME280;65745;50.278;18.192;2023-12-20T04:07:48;99076.18;;;4.71;83.51
76794;BME280;65745;50.278;18.192;2023-12-20T04:10:21;99074.19;;;4.73;83.35
76794;BME280;65745;50.278;18.192;2023-12-20T04:12:54;99071.04;;;4.76;83.27
76794;BME280;65745;50.278;18.192;2023-12-20T04:15:27;99066.39;;;4.81;83.27
76794;BME280;65745;50.278;18.192;2023-12-20T04:17:59;99068.34;;;4.83;83.49
76794;BME280;65745;50.278;18.192;2023-12-20T04:20:32;99067.50;;;4.84;83.25
76794;BME280;65745;50.278;18.192;2023-12-20T04:23:04;99067.87;;;4.85;83.42
76794;BME280;65745;50.278;18.192;2023-12-20T04:25:36;99063.38;;;4.83;83.62
76794;BME280;65745;50.278;18.192;2023-12-20T04:28:08;99055.04;;;4.83;85.30
76794;BME280;65745;50.278;18.192;2023-12-20T04:30:41;99053.59;;;4.80;85.17
76794;BME280;65745;50.278;18.192;2023-12-20T04:33:13;99057.84;;;4.80;84.85
76794;BME280;65745;50.278;18.192;2023-12-20T04:35:45;99058.66;;;4.85;84.00
76794;BME280;65745;50.278;18.192;2023-12-20T04:38:18;99058.77;;;4.88;83.40
76794;BME280;65745;50.278;18.192;2023-12-20T04:40:50;99055.94;;;4.91;85.29
76794;BME280;65745;50.278;18.192;2023-12-20T04:43:22;99062.66;;;4.87;85.18
76794;BME280;65745;50.278;18.192;2023-12-20T04:45:54;99068.52;;;4.89;84.84
76794;BME280;65745;50.278;18.192;2023-12-20T04:48:26;99069.11;;;4.92;83.90
76794;BME280;65745;50.278;18.192;2023-12-20T04:50:58;99066.17;;;4.91;85.37
76794;BME280;65745;50.278;18.192;2023-12-20T04:53:30;99067.44;;;4.87;84.68
76794;BME280;65745;50.278;18.192;2023-12-20T04:56:02;99063.05;;;4.83;86.02
76794;BME280;65745;50.278;18.192;2023-12-20T04:58:34;99060.05;;;4.80;86.77
76794;BME280;65745;50.278;18.192;2023-12-20T05:01:08;99059.30;;;4.78;86.71
76794;BME280;65745;50.278;18.192;2023-12-20T05:03:40;99053.70;;;4.84;85.33
76794;BME280;65745;50.278;18.192;2023-12-20T05:06:12;99056.37;;;4.88;84.99
76794;BME280;65745;50.278;18.192;2023-12-20T05:08:45;99062.05;;;4.90;85.16
76794;BME280;65745;50.278;18.192;2023-12-20T05:11:18;99062.30;;;4.93;85.34
76794;BME280;65745;50.278;18.192;2023-12-20T05:13:50;99062.73;;;4.90;86.60
76794;BME280;65745;50.278;18.192;2023-12-20T05:16:22;99059.23;;;4.93;85.85
76794;BME280;65745;50.278;18.192;2023-12-20T05:18:54;99059.55;;;4.92;86.92
76794;BME280;65745;50.278;18.192;2023-12-20T05:21:26;99054.59;;;4.86;87.36
76794;BME280;65745;50.278;18.192;2023-12-20T05:23:58;99059.59;;;4.81;87.52
76794;BME280;65745;50.278;18.192;2023-12-20T05:26:31;99061.13;;;4.81;86.22
76794;BME280;65745;50.278;18.192;2023-12-20T05:29:03;99062.29;;;4.80;86.37
76794;BME280;65745;50.278;18.192;2023-12-20T05:31:35;99061.51;;;4.83;85.43
76794;BME280;65745;50.278;18.192;2023-12-20T05:34:07;99064.21;;;4.88;84.84
76794;BME280;65745;50.278;18.192;2023-12-20T05:36:40;99061.75;;;4.92;85.23
76794;BME280;65745;50.278;18.192;2023-12-20T05:39:12;99063.73;;;4.89;85.71
76794;BME280;65745;50.278;18.192;2023-12-20T05:41:44;99065.41;;;4.88;85.14
76794;BME280;65745;50.278;18.192;2023-12-20T05:44:16;99066.19;;;4.91;85.40
76794;BME280;65745;50.278;18.192;2023-12-20T05:46:48;99068.67;;;4.89;86.11
76794;BME280;65745;50.278;18.192;2023-12-20T05:49:20;99072.66;;;4.90;85.38
76794;BME280;65745;50.278;18.192;2023-12-20T05:51:53;99073.77;;;4.94;84.84
76794;BME280;65745;50.278;18.192;2023-12-20T05:54:25;99077.02;;;4.94;85.07
76794;BME280;65745;50.278;18.192;2023-12-20T05:56:58;99080.70;;;4.97;84.50
76794;BME280;65745;50.278;18.192;2023-12-20T05:59:30;99080.48;;;5.01;84.02
76794;BME280;65745;50.278;18.192;2023-12-20T06:02:02;99081.52;;;5.02;84.14
76794;BME280;65745;50.278;18.192;2023-12-20T06:04:35;99076.79;;;4.98;84.59
76794;BME280;65745;50.278;18.192;2023-12-20T06:07:07;99078.13;;;4.97;84.76
76794;BME280;65745;50.278;18.192;2023-12-20T06:09:39;99078.63;;;4.96;84.37
76794;BME280;65745;50.278;18.192;2023-12-20T06:12:11;99077.80;;;4.97;83.82
76794;BME280;65745;50.278;18.192;2023-12-20T06:14:44;99079.80;;;4.96;84.14
76794;BME280;65745;50.278;18.192;2023-12-20T06:17:16;99086.58;;;4.94;84.78
76794;BME280;65745;50.278;18.192;2023-12-20T06:19:47;99089.27;;;4.93;84.79
76794;BME280;65745;50.278;18.192;2023-12-20T06:22:20;99085.98;;;4.91;84.50
76794;BME280;65745;50.278;18.192;2023-12-20T06:24:52;99090.27;;;4.92;84.68
76794;BME280;65745;50.278;18.192;2023-12-20T06:27:24;99089.05;;;4.91;85.05
76794;BME280;65745;50.278;18.192;2023-12-20T06:29:57;99090.01;;;4.89;84.80
76794;BME280;65745;50.278;18.192;2023-12-20T06:32:30;99095.23;;;4.86;84.60
76794;BME280;65745;50.278;18.192;2023-12-20T06:35:02;99096.52;;;4.85;84.79
76794;BME280;65745;50.278;18.192;2023-12-20T06:37:35;99095.95;;;4.82;85.06
76794;BME280;65745;50.278;18.192;2023-12-20T06:40:10;99102.02;;;4.80;85.08
76794;BME280;65745;50.278;18.192;2023-12-20T06:42:48;99107.25;;;4.78;85.35
76794;BME280;65745;50.278;18.192;2023-12-20T06:45:35;99106.77;;;4.73;85.92
76794;BME280;65745;50.278;18.192;2023-12-20T06:48:08;99106.10;;;4.68;85.90
76794;BME280;65745;50.278;18.192;2023-12-20T06:50:42;99109.19;;;4.63;86.09
76794;BME280;65745;50.278;18.192;2023-12-20T06:53:14;99107.21;;;4.60;85.91
76794;BME280;65745;50.278;18.192;2023-12-20T06:55:46;99107.74;;;4.54;85.84
76794;BME280;65745;50.278;18.192;2023-12-20T06:58:18;99110.38;;;4.52;85.85
76794;BME280;65745;50.278;18.192;2023-12-20T07:00:50;99113.77;;;4.46;86.44
76794;BME280;65745;50.278;18.192;2023-12-20T07:03:22;99113.83;;;4.42;86.76
76794;BME280;65745;50.278;18.192;2023-12-20T07:05:55;99113.34;;;4.37;87.01
76794;BME280;65745;50.278;18.192;2023-12-20T07:08:27;99117.00;;;4.34;87.22
76794;BME280;65745;50.278;18.192;2023-12-20T07:10:59;99120.83;;;4.32;87.46
76794;BME280;65745;50.278;18.192;2023-12-20T07:13:32;99117.16;;;4.29;87.72
76794;BME280;65745;50.278;18.192;2023-12-20T07:16:05;99120.73;;;4.29;87.54
76794;BME280;65745;50.278;18.192;2023-12-20T07:18:37;99124.30;;;4.28;87.80
76794;BME280;65745;50.278;18.192;2023-12-20T07:21:09;99121.11;;;4.25;88.14
76794;BME280;65745;50.278;18.192;2023-12-20T07:23:41;99121.77;;;4.23;88.20
76794;BME280;65745;50.278;18.192;2023-12-20T07:26:14;99123.98;;;4.23;88.24
76794;BME280;65745;50.278;18.192;2023-12-20T07:28:46;99126.61;;;4.21;88.96
76794;BME280;65745;50.278;18.192;2023-12-20T07:31:18;99122.84;;;4.20;88.96
76794;BME280;65745;50.278;18.192;2023-12-20T07:33:51;99121.11;;;4.19;88.97
76794;BME280;65745;50.278;18.192;2023-12-20T07:36:25;99120.77;;;4.19;89.34
76794;BME280;65745;50.278;18.192;2023-12-20T07:38:57;99125.70;;;4.19;88.99
76794;BME280;65745;50.278;18.192;2023-12-20T07:41:29;99131.14;;;4.18;89.43
76794;BME280;65745;50.278;18.192;2023-12-20T07:44:01;99128.20;;;4.17;89.70
76794;BME280;65745;50.278;18.192;2023-12-20T07:46:33;99128.39;;;4.18;89.85
76794;BME280;65745;50.278;18.192;2023-12-20T07:49:06;99128.70;;;4.17;90.25
76794;BME280;65745;50.278;18.192;2023-12-20T07:51:39;99128.16;;;4.16;90.13
76794;BME280;65745;50.278;18.192;2023-12-20T07:54:11;99132.25;;;4.16;90.46
76794;BME280;65745;50.278;18.192;2023-12-20T07:56:46;99127.23;;;4.13;90.41
76794;BME280;65745;50.278;18.192;2023-12-20T07:59:18;99124.83;;;4.13;90.63
76794;BME280;65745;50.278;18.192;2023-12-20T08:02:02;99125.38;;;4.14;90.50
76794;BME280;65745;50.278;18.192;2023-12-20T08:04:34;99129.59;;;4.13;90.58
76794;BME280;65745;50.278;18.192;2023-12-20T08:07:07;99130.75;;;4.12;90.47
76794;BME280;65745;50.278;18.192;2023-12-20T08:09:39;99135.97;;;4.10;90.92
76794;BME280;65745;50.278;18.192;2023-12-20T08:12:11;99138.44;;;4.08;90.79
76794;BME280;65745;50.278;18.192;2023-12-20T08:14:43;99142.98;;;4.06;91.19
76794;BME280;65745;50.278;18.192;2023-12-20T08:17:16;99140.70;;;4.04;91.07
76794;BME280;65745;50.278;18.192;2023-12-20T08:19:49;99138.60;;;4.02;91.35
76794;BME280;65745;50.278;18.192;2023-12-20T08:22:22;99138.23;;;4.01;91.33
76794;BME280;65745;50.278;18.192;2023-12-20T08:24:54;99138.55;;;4.01;91.47
76794;BME280;65745;50.278;18.192;2023-12-20T08:27:26;99137.37;;;4.01;91.46
76794;BME280;65745;50.278;18.192;2023-12-20T08:29:58;99137.48;;;3.99;91.67
76794;BME280;65745;50.278;18.192;2023-12-20T08:32:30;99138.85;;;4.00;91.37
76794;BME280;65745;50.278;18.192;2023-12-20T08:35:03;99140.75;;;4.00;91.60
76794;BME280;65745;50.278;18.192;2023-12-20T08:37:36;99145.41;;;4.02;91.54
76794;BME280;65745;50.278;18.192;2023-12-20T08:40:09;99150.04;;;4.03;91.50
76794;BME280;65745;50.278;18.192;2023-12-20T08:42:42;99144.85;;;4.06;91.06
76794;BME280;65745;50.278;18.192;2023-12-20T08:45:14;99148.39;;;4.10;91.09
76794;BME280;65745;50.278;18.192;2023-12-20T08:47:46;99152.23;;;4.12;91.05
76794;BME280;65745;50.278;18.192;2023-12-20T08:50:19;99152.49;;;4.15;91.14
76794;BME280;65745;50.278;18.192;2023-12-20T08:52:52;99146.31;;;4.18;90.96
76794;BME280;65745;50.278;18.192;2023-12-20T08:55:24;99153.33;;;4.19;90.87
76794;BME280;65745;50.278;18.192;2023-12-20T08:57:58;99151.18;;;4.22;90.81
76794;BME280;65745;50.278;18.192;2023-12-20T09:00:30;99146.52;;;4.25;90.90
76794;BME280;65745;50.278;18.192;2023-12-20T09:03:02;99146.59;;;4.27;90.76
76794;BME280;65745;50.278;18.192;2023-12-20T09:05:35;99144.13;;;4.31;90.83
76794;BME280;65745;50.278;18.192;2023-12-20T09:08:07;99153.77;;;4.33;91.25
76794;BME280;65745;50.278;18.192;2023-12-20T09:10:41;99153.91;;;4.38;90.85
76794;BME280;65745;50.278;18.192;2023-12-20T09:13:13;99153.00;;;4.41;90.94
76794;BME280;65745;50.278;18.192;2023-12-20T09:15:45;99155.64;;;4.43;90.85
76794;BME280;65745;50.278;18.192;2023-12-20T09:18:18;99151.06;;;4.44;90.85
76794;BME280;65745;50.278;18.192;2023-12-20T09:20:50;99149.59;;;4.46;91.00
76794;BME280;65745;50.278;18.192;2023-12-20T09:23:23;99153.39;;;4.48;90.59
76794;BME280;65745;50.278;18.192;2023-12-20T09:25:55;99153.83;;;4.50;90.49
76794;BME280;65745;50.278;18.192;2023-12-20T09:28:28;99156.56;;;4.51;90.30
76794;BME280;65745;50.278;18.192;2023-12-20T09:31:00;99156.09;;;4.52;90.61
76794;BME280;65745;50.278;18.192;2023-12-20T09:33:32;99153.55;;;4.53;90.68
76794;BME280;65745;50.278;18.192;2023-12-20T09:36:05;99151.57;;;4.54;90.59
76794;BME280;65745;50.278;18.192;2023-12-20T09:38:38;99153.89;;;4.53;91.34
76794;BME280;65745;50.278;18.192;2023-12-20T09:41:10;99151.88;;;4.53;90.78
76794;BME280;65745;50.278;18.192;2023-12-20T09:43:43;99150.48;;;4.58;90.54
76794;BME280;65745;50.278;18.192;2023-12-20T09:46:18;99147.68;;;4.61;90.06
76794;BME280;65745;50.278;18.192;2023-12-20T09:48:56;99146.39;;;4.63;90.58
76794;BME280;65745;50.278;18.192;2023-12-20T09:51:30;99143.52;;;4.64;90.56
76794;BME280;65745;50.278;18.192;2023-12-20T09:54:04;99141.52;;;4.66;90.51
76794;BME280;65745;50.278;18.192;2023-12-20T09:56:36;99142.23;;;4.67;90.35
76794;BME280;65745;50.278;18.192;2023-12-20T09:59:09;99137.98;;;4.68;90.60
76794;BME280;65745;50.278;18.192;2023-12-20T10:01:42;99139.63;;;4.71;90.67
76794;BME280;65745;50.278;18.192;2023-12-20T10:04:15;99132.24;;;4.75;90.11
76794;BME280;65745;50.278;18.192;2023-12-20T10:07:03;99132.34;;;4.78;90.16
76794;BME280;65745;50.278;18.192;2023-12-20T10:09:37;99132.59;;;4.81;90.62
76794;BME280;65745;50.278;18.192;2023-12-20T10:12:10;99129.41;;;4.83;90.29
76794;BME280;65745;50.278;18.192;2023-12-20T10:14:42;99128.48;;;4.86;90.59
76794;BME280;65745;50.278;18.192;2023-12-20T10:17:14;99122.61;;;4.89;90.24
76794;BME280;65745;50.278;18.192;2023-12-20T10:19:46;99124.58;;;4.92;90.46
76794;BME280;65745;50.278;18.192;2023-12-20T10:22:18;99122.29;;;4.96;90.58
76794;BME280;65745;50.278;18.192;2023-12-20T10:24:50;99125.45;;;4.99;90.30
76794;BME280;65745;50.278;18.192;2023-12-20T10:27:22;99124.66;;;5.01;90.13
76794;BME280;65745;50.278;18.192;2023-12-20T10:29:54;99123.17;;;5.02;90.37
76794;BME280;65745;50.278;18.192;2023-12-20T10:32:27;99127.02;;;5.06;90.21
76794;BME280;65745;50.278;18.192;2023-12-20T10:35:01;99122.09;;;5.06;90.26
76794;BME280;65745;50.278;18.192;2023-12-20T10:37:36;99120.59;;;5.08;90.11
76794;BME280;65745;50.278;18.192;2023-12-20T10:40:13;99126.06;;;5.08;89.79
76794;BME280;65745;50.278;18.192;2023-12-20T10:42:45;99127.06;;;5.07;89.89
76794;BME280;65745;50.278;18.192;2023-12-20T10:45:18;99134.67;;;5.05;90.22
76794;BME280;65745;50.278;18.192;2023-12-20T10:47:51;99134.09;;;5.02;90.00
76794;BME280;65745;50.278;18.192;2023-12-20T10:50:23;99136.22;;;4.99;90.29
76794;BME280;65745;50.278;18.192;2023-12-20T10:52:57;99132.69;;;5.01;90.43
76794;BME280;65745;50.278;18.192;2023-12-20T10:55:30;99132.18;;;5.01;90.03
76794;BME280;65745;50.278;18.192;2023-12-20T10:58:05;99128.08;;;5.01;90.40
76794;BME280;65745;50.278;18.192;2023-12-20T11:00:40;99125.29;;;4.99;90.31
76794;BME280;65745;50.278;18.192;2023-12-20T11:03:13;99133.77;;;5.03;90.39
76794;BME280;65745;50.278;18.192;2023-12-20T11:05:51;99130.41;;;5.05;90.48
76794;BME280;65745;50.278;18.192;2023-12-20T11:08:31;99123.27;;;5.06;90.27
76794;BME280;65745;50.278;18.192;2023-12-20T11:11:08;99119.09;;;5.09;90.35
76794;BME280;65745;50.278;18.192;2023-12-20T11:13:48;99114.67;;;5.15;90.10
76794;BME280;65745;50.278;18.192;2023-12-20T11:16:25;99110.89;;;5.20;90.32
76794;BME280;65745;50.278;18.192;2023-12-20T11:19:12;99105.95;;;5.27;90.02
76794;BME280;65745;50.278;18.192;2023-12-20T11:21:47;99104.52;;;5.31;89.80
76794;BME280;65745;50.278;18.192;2023-12-20T11:24:23;99099.48;;;5.33;89.97
76794;BME280;65745;50.278;18.192;2023-12-20T11:26:59;99091.55;;;5.37;89.67
76794;BME280;65745;50.278;18.192;2023-12-20T11:29:35;99097.52;;;5.43;89.83
76794;BME280;65745;50.278;18.192;2023-12-20T11:32:31;99093.58;;;5.49;89.66
76794;BME280;65745;50.278;18.192;2023-12-20T11:35:19;99096.67;;;5.56;89.24
76794;BME280;65745;50.278;18.192;2023-12-20T11:37:52;99094.05;;;5.61;88.98
76794;BME280;65745;50.278;18.192;2023-12-20T11:40:24;99090.05;;;5.58;88.93
76794;BME280;65745;50.278;18.192;2023-12-20T11:42:57;99086.81;;;5.58;89.21
76794;BME280;65745;50.278;18.192;2023-12-20T11:45:29;99091.27;;;5.58;88.71
76794;BME280;65745;50.278;18.192;2023-12-20T11:48:03;99091.81;;;5.60;88.97
76794;BME280;65745;50.278;18.192;2023-12-20T11:50:35;99083.46;;;5.61;88.96
76794;BME280;65745;50.278;18.192;2023-12-20T11:53:08;99079.98;;;5.65;88.51
76794;BME280;65745;50.278;18.192;2023-12-20T11:55:42;99071.94;;;5.70;88.44
76794;BME280;65745;50.278;18.192;2023-12-20T11:58:15;99072.08;;;5.76;87.76
76794;BME280;65745;50.278;18.192;2023-12-20T12:00:49;99068.42;;;5.80;87.36
76794;BME280;65745;50.278;18.192;2023-12-20T12:03:23;99062.65;;;5.87;87.42
76794;BME280;65745;50.278;18.192;2023-12-20T12:05:55;99055.80;;;6.00;86.84
76794;BME280;65745;50.278;18.192;2023-12-20T12:08:28;99065.39;;;6.08;87.08
76794;BME280;65745;50.278;18.192;2023-12-20T12:11:00;99065.94;;;6.09;87.30
76794;BME280;65745;50.278;18.192;2023-12-20T12:13:33;99065.33;;;6.13;87.83
76794;BME280;65745;50.278;18.192;2023-12-20T12:16:06;99068.64;;;6.15;87.69
76794;BME280;65745;50.278;18.192;2023-12-20T12:18:38;99071.73;;;6.15;87.38
76794;BME280;65745;50.278;18.192;2023-12-20T12:21:20;99074.03;;;6.12;87.28
76794;BME280;65745;50.278;18.192;2023-12-20T12:24:08;99071.99;;;6.13;87.43
76794;BME280;65745;50.278;18.192;2023-12-20T12:26:40;99074.21;;;6.05;86.44
76794;BME280;65745;50.278;18.192;2023-12-20T12:29:12;99074.14;;;6.02;86.95
76794;BME280;65745;50.278;18.192;2023-12-20T12:31:44;99071.27;;;5.96;86.69
76794;BME280;65745;50.278;18.192;2023-12-20T12:34:17;99064.39;;;5.94;86.81
76794;BME280;65745;50.278;18.192;2023-12-20T12:36:50;99058.27;;;5.96;86.34
76794;BME280;65745;50.278;18.192;2023-12-20T12:39:24;99059.97;;;5.95;86.31
76794;BME280;65745;50.278;18.192;2023-12-20T12:41:57;99065.60;;;5.96;86.28
76794;BME280;65745;50.278;18.192;2023-12-20T12:44:29;99058.85;;;5.99;86.59
76794;BME280;65745;50.278;18.192;2023-12-20T12:47:01;99057.21;;;6.02;86.38
76794;BME280;65745;50.278;18.192;2023-12-20T12:49:34;99050.14;;;6.07;86.19
76794;BME280;65745;50.278;18.192;2023-12-20T12:52:07;99048.73;;;6.12;85.58
76794;BME280;65745;50.278;18.192;2023-12-20T12:54:39;99048.77;;;6.13;85.40
76794;BME280;65745;50.278;18.192;2023-12-20T12:57:13;99052.09;;;6.16;85.48
76794;BME280;65745;50.278;18.192;2023-12-20T12:59:45;99055.31;;;6.23;84.91
76794;BME280;65745;50.278;18.192;2023-12-20T13:02:18;99060.36;;;6.26;84.78
76794;BME280;65745;50.278;18.192;2023-12-20T13:04:50;99059.70;;;6.28;85.27
76794;BME280;65745;50.278;18.192;2023-12-20T13:07:22;99059.27;;;6.31;84.67
76794;BME280;65745;50.278;18.192;2023-12-20T13:09:54;99060.38;;;6.34;84.05
76794;BME280;65745;50.278;18.192;2023-12-20T13:12:27;99062.50;;;6.45;83.37
76794;BME280;65745;50.278;18.192;2023-12-20T13:15:01;99061.77;;;6.59;83.05
76794;BME280;65745;50.278;18.192;2023-12-20T13:17:34;99060.11;;;6.68;82.84
76794;BME280;65745;50.278;18.192;2023-12-20T13:20:08;99062.75;;;6.71;82.64
76794;BME280;65745;50.278;18.192;2023-12-20T13:22:40;99064.04;;;6.76;82.55
76794;BME280;65745;50.278;18.192;2023-12-20T13:25:13;99068.61;;;6.81;82.22
76794;BME280;65745;50.278;18.192;2023-12-20T13:27:45;99065.10;;;6.85;81.99
76794;BME280;65745;50.278;18.192;2023-12-20T13:30:18;99061.80;;;6.83;82.09